Gregory, Arkansas
Current Conditions -  °F | °C
As of 7:56 AM on Thursday 18 Dec 2014 (Local Time) from KSRC Reporting Station
Overcast Overcast  
Wind Chill: 32°   Ceiling: 700
Heat Index: 37°   Visibility: 8mi
Dew Point: 36°   Wind: 7mph
Humidity: 96%   Direction: 60°ENE
Pressure: 30.26"   Gusts: NA
Location:  35.16°N, 91.34°W
Report Text: KSRC 181356Z AUTO 06006KT 8SM BKN007 OVC027 03/02 A3026 RMK AO2 SLP252 T00280022 TSNO
Loading
Personal Weather Stations






























Interactive Weather Map New forecast layout! Learn more

10-Day Weather Forecast

Advertisements
Track Severe Weather on mobile